Terminal Aerodrome Forecast
Issued by NWS

Home | Current Version | Previous Version | Text Only | Print | Product List | Glossary On
Versions: 1 2 3 4 5 6 7 8 9 10 11 12 13 14 15
000
FTUS45 KTFX 010500
TAFGTF
TAF
KGTF 010520Z 0106/0206 33012KT P6SM VCSH SCT015 BKN050
      TEMPO 0106/0110 6SM -SHRA BR BKN015
     FM011000 30009KT P6SM FEW005 BKN040
     FM011700 24011KT P6SM SCT050 SCT080
     FM020100 22009KT P6SM SKC=

USA.gov is the U.S. government's official web portal to all federal, state and local government web resources and services.